createdAt,value
2023-02-02T00:01:22.764Z,97491.94
2023-02-02T00:03:52.607Z,97506.00
2023-02-02T00:06:24.154Z,97510.44
2023-02-02T00:08:50.848Z,97508.09
2023-02-02T00:11:19.027Z,97510.75
2023-02-02T00:13:46.040Z,97514.34
2023-02-02T00:16:30.965Z,97520.06
2023-02-02T00:18:59.857Z,97517.56
2023-02-02T00:21:26.462Z,97534.09
2023-02-02T00:23:53.233Z,97538.56
2023-02-02T00:26:20.087Z,97548.16
2023-02-02T00:28:47.367Z,97552.59
2023-02-02T00:31:14.036Z,97554.28
2023-02-02T00:33:46.124Z,97557.78
2023-02-02T00:36:12.776Z,97558.75
2023-02-02T00:38:39.292Z,97558.75
2023-02-02T00:41:07.212Z,97549.44
2023-02-02T00:43:34.090Z,97563.06
2023-02-02T00:46:01.336Z,97536.19
2023-02-02T00:48:28.056Z,97555.25
2023-02-02T00:50:54.821Z,97553.44
2023-02-02T00:53:21.866Z,97556.91
2023-02-02T00:55:48.454Z,97559.56
2023-02-02T00:58:14.954Z,97556.91
2023-02-02T01:00:41.622Z,97563.31
2023-02-02T01:03:08.179Z,97563.88
2023-02-02T01:05:35.019Z,97557.78
2023-02-02T01:08:02.085Z,97557.06
2023-02-02T01:10:28.687Z,97553.44
2023-02-02T01:12:55.212Z,97559.72
2023-02-02T01:15:22.070Z,97551.78
2023-02-02T01:17:49.210Z,97550.97
2023-02-02T01:20:19.904Z,97563.19
2023-02-02T01:22:47.601Z,97566.69
2023-02-02T01:25:14.560Z,97561.66
2023-02-02T01:27:43.173Z,97559.72
2023-02-02T01:30:10.716Z,97556.34
2023-02-02T01:32:37.315Z,97569.47
2023-02-02T01:35:03.950Z,97570.28
2023-02-02T01:37:30.562Z,97561.94
2023-02-02T01:39:57.069Z,97579.19
2023-02-02T01:42:24.040Z,97581.00
2023-02-02T01:45:05.733Z,97575.72
2023-02-02T01:47:39.065Z,97576.69
2023-02-02T01:50:08.465Z,97592.53
2023-02-02T01:52:35.941Z,97585.59
2023-02-02T01:55:08.444Z,97584.75
2023-02-02T01:57:42.168Z,97594.47
2023-02-02T02:00:13.349Z,97593.50
2023-02-02T02:02:44.425Z,97599.91
2023-02-02T02:05:11.984Z,97605.06
2023-02-02T02:07:43.550Z,97602.56
2023-02-02T02:10:10.561Z,97606.03
2023-02-02T02:12:37.448Z,97602.94
2023-02-02T02:15:23.545Z,97606.88
2023-02-02T02:18:32.533Z,97608.81
2023-02-02T02:21:53.915Z,97615.06
2023-02-02T02:24:53.485Z,97623.41
2023-02-02T02:27:38.649Z,97615.22
2023-02-02T02:30:30.001Z,97626.75
2023-02-02T02:33:16.061Z,97630.34
2023-02-02T02:36:01.252Z,97621.59
2023-02-02T02:38:37.099Z,97627.72
2023-02-02T02:41:10.567Z,97624.38
2023-02-02T02:43:45.842Z,97633.00
2023-02-02T02:46:13.461Z,97636.50
2023-02-02T02:48:44.805Z,97645.25
2023-02-02T02:51:39.330Z,97647.22
2023-02-02T02:54:07.440Z,97645.53
2023-02-02T02:57:12.816Z,97649.00
2023-02-02T03:00:04.959Z,97651.78
2023-02-02T03:02:50.102Z,97649.97
2023-02-02T03:05:45.960Z,97657.06
2023-02-02T03:08:39.922Z,97652.91
2023-02-02T03:11:09.649Z,97662.50
2023-02-02T03:13:36.297Z,97659.16
2023-02-02T03:16:03.018Z,97646.63
2023-02-02T03:18:32.397Z,97659.84
2023-02-02T03:20:59.489Z,97658.19
2023-02-02T03:23:26.527Z,97658.31
2023-02-02T03:25:53.604Z,97675.81
2023-02-02T03:28:21.439Z,97671.53
2023-02-02T03:30:48.911Z,97655.50
2023-02-02T03:33:16.342Z,97675.00
2023-02-02T03:35:42.957Z,97675.00
2023-02-02T03:38:09.517Z,97679.47
2023-02-02T03:40:36.212Z,97681.25
2023-02-02T03:43:03.009Z,97675.16
2023-02-02T03:45:30.361Z,97668.91
2023-02-02T03:47:56.874Z,97661.94
2023-02-02T03:50:25.376Z,97669.84
2023-02-02T03:52:52.040Z,97668.03
2023-02-02T03:55:18.573Z,97669.00
2023-02-02T03:57:45.080Z,97666.38
2023-02-02T04:00:12.165Z,97663.84
2023-02-02T04:02:38.844Z,97670.97
2023-02-02T04:05:06.009Z,97663.84
2023-02-02T04:07:32.558Z,97659.53
2023-02-02T04:09:59.130Z,97663.28
2023-02-02T04:12:25.623Z,97662.31
2023-02-02T04:14:52.408Z,97670.25
2023-02-02T04:17:18.898Z,97678.19
2023-02-02T04:19:45.473Z,97674.69
2023-02-02T04:22:12.007Z,97679.97
2023-02-02T04:24:38.556Z,97673.84
2023-02-02T04:27:05.085Z,97668.56
2023-02-02T04:29:31.642Z,97668.56
2023-02-02T04:31:58.239Z,97665.22
2023-02-02T04:34:24.808Z,97670.50
2023-02-02T04:36:51.396Z,97674.81
2023-02-02T04:39:17.924Z,97670.78
2023-02-02T04:41:44.401Z,97677.47
2023-02-02T04:44:15.254Z,97665.59
2023-02-02T04:46:45.382Z,97671.50
2023-02-02T04:49:12.299Z,97660.06
2023-02-02T04:51:40.295Z,97669.81
2023-02-02T04:54:07.738Z,97667.19
2023-02-02T04:56:34.725Z,97674.25
2023-02-02T04:59:02.089Z,97652.34
2023-02-02T05:01:31.102Z,97669.94
2023-02-02T05:03:58.080Z,97670.91
2023-02-02T05:06:24.813Z,97671.75
2023-02-02T05:08:51.423Z,97677.97
2023-02-02T05:11:20.588Z,97680.59
2023-02-02T05:13:48.776Z,97674.50
2023-02-02T05:16:15.602Z,97683.25
2023-02-02T05:18:43.252Z,97689.50
2023-02-02T05:21:10.274Z,97685.69
2023-02-02T05:23:36.833Z,97688.19
2023-02-02T05:26:03.437Z,97681.06
2023-02-02T05:28:30.507Z,97683.72
2023-02-02T05:30:57.586Z,97684.56
2023-02-02T05:33:24.314Z,97679.78
2023-02-02T05:35:51.701Z,97687.34
2023-02-02T05:38:18.376Z,97688.53
2023-02-02T05:40:44.848Z,97693.00
2023-02-02T05:43:11.413Z,97693.13
2023-02-02T05:45:37.990Z,97696.84
2023-02-02T05:48:04.601Z,97702.03
2023-02-02T05:50:31.195Z,97689.78
2023-02-02T05:53:03.988Z,97684.31
2023-02-02T05:55:30.651Z,97687.28
2023-02-02T05:57:57.161Z,97693.53
2023-02-02T06:00:23.730Z,97691.72
2023-02-02T06:02:50.238Z,97686.41
2023-02-02T06:05:16.994Z,97680.31
2023-02-02T06:07:43.528Z,97685.59
2023-02-02T06:10:10.595Z,97684.75
2023-02-02T06:12:37.235Z,97678.50
2023-02-02T06:15:04.864Z,97673.22
2023-02-02T06:17:31.446Z,97673.22
2023-02-02T06:19:58.005Z,97675.84
2023-02-02T06:22:24.689Z,97669.03
2023-02-02T06:24:53.354Z,97681.13
2023-02-02T06:27:21.387Z,97674.06
2023-02-02T06:29:48.045Z,97674.06
2023-02-02T06:32:14.584Z,97664.31
2023-02-02T06:34:41.238Z,97613.03
2023-02-02T06:37:07.790Z,97654.47
2023-02-02T06:39:34.884Z,97652.66
2023-02-02T06:42:11.875Z,97656.00
2023-02-02T06:44:42.275Z,97671.84
2023-02-02T06:47:08.828Z,97661.19
2023-02-02T06:49:35.419Z,97658.66
2023-02-02T06:52:02.169Z,97655.16
2023-02-02T06:54:28.762Z,97651.69
2023-02-02T06:56:56.040Z,97656.97
2023-02-02T06:59:23.039Z,97650.84
2023-02-02T07:01:50.357Z,97649.44
2023-02-02T07:04:18.511Z,97655.28
2023-02-02T07:06:45.413Z,97657.09
2023-02-02T07:09:12.028Z,97660.72
2023-02-02T07:11:42.203Z,97648.28
2023-02-02T07:14:12.550Z,97671.28
2023-02-02T07:16:39.047Z,97669.75
2023-02-02T07:19:05.581Z,97669.88
2023-02-02T07:21:38.158Z,97669.75
2023-02-02T07:24:05.895Z,97665.44
2023-02-02T07:26:34.872Z,97668.88
2023-02-02T07:29:01.592Z,97665.44
2023-02-02T07:31:29.083Z,97673.34
2023-02-02T07:33:55.824Z,97671.53
2023-02-02T07:36:24.495Z,97660.38
2023-02-02T07:38:57.328Z,97654.72
2023-02-02T07:41:24.758Z,97669.59
2023-02-02T07:43:52.038Z,97656.41
2023-02-02T07:46:19.189Z,97659.75
2023-02-02T07:48:45.866Z,97657.09
2023-02-02T07:51:15.589Z,97643.72
2023-02-02T07:53:44.863Z,97633.28
2023-02-02T07:56:17.051Z,97647.13
2023-02-02T07:58:44.248Z,97653.09
2023-02-02T08:01:13.107Z,97657.56
2023-02-02T08:03:40.066Z,97666.22
2023-02-02T08:06:17.655Z,97648.31
2023-02-02T08:08:44.927Z,97648.41
2023-02-02T08:11:13.239Z,97660.66
2023-02-02T08:13:40.734Z,97656.19
2023-02-02T08:16:07.939Z,97645.91
2023-02-02T08:18:35.906Z,97640.88
2023-02-02T08:21:03.730Z,97658.56
2023-02-02T08:23:31.406Z,97650.66
2023-02-02T08:26:33.976Z,97654.81
2023-02-02T08:31:39.442Z,97655.69
2023-02-02T08:34:06.287Z,97662.63
2023-02-02T08:36:35.464Z,97651.06
2023-02-02T08:39:07.925Z,97658.03
2023-02-02T08:41:36.769Z,97652.75
2023-02-02T08:44:12.452Z,97661.41
2023-02-02T08:46:39.459Z,97657.78
2023-02-02T08:49:06.078Z,97658.47
2023-02-02T08:51:32.830Z,97658.31
2023-02-02T08:53:59.334Z,97653.75
2023-02-02T08:56:26.007Z,97665.84
2023-02-02T08:59:03.178Z,97654.47
2023-02-02T09:01:31.972Z,97648.22
2023-02-02T09:04:00.971Z,97656.00
2023-02-02T09:06:40.365Z,97649.75
2023-02-02T09:09:08.964Z,97638.84
2023-02-02T09:11:36.666Z,97633.59
2023-02-02T09:14:06.249Z,97651.41
2023-02-02T09:16:34.771Z,97657.13
2023-02-02T09:19:01.791Z,97652.53
2023-02-02T09:21:28.532Z,97658.53
2023-02-02T09:23:55.117Z,97660.19
2023-02-02T09:26:26.576Z,97661.88
2023-02-02T09:29:02.679Z,97667.03
2023-02-02T09:31:31.009Z,97662.69
2023-02-02T09:34:04.885Z,97664.53
2023-02-02T09:36:33.934Z,97662.69
2023-02-02T09:39:00.900Z,97649.06
2023-02-02T09:41:40.427Z,97676.09
2023-02-02T09:44:34.845Z,97680.56
2023-02-02T09:47:20.057Z,97676.91
2023-02-02T09:50:02.763Z,97675.94
2023-02-02T09:53:17.352Z,97679.44
2023-02-02T09:55:47.971Z,97693.34
2023-02-02T09:58:25.685Z,97687.94
2023-02-02T10:01:15.355Z,97686.13
2023-02-02T10:04:16.055Z,97693.09
2023-02-02T10:06:45.725Z,97677.06
2023-02-02T10:09:40.509Z,97693.34
2023-02-02T10:12:38.030Z,97691.41
2023-02-02T10:15:27.018Z,97695.59
2023-02-02T10:18:45.160Z,97691.97
2023-02-02T10:21:39.046Z,97667.84
2023-02-02T10:24:12.627Z,97686.69
2023-02-02T10:26:46.867Z,97710.22
2023-02-02T10:29:23.497Z,97694.22
2023-02-02T10:31:58.894Z,97705.63
2023-02-02T10:35:03.494Z,97711.63
2023-02-02T10:37:59.428Z,97711.63
2023-02-02T10:40:53.492Z,97724.72
2023-02-02T10:43:58.449Z,97715.94
2023-02-02T10:46:34.528Z,97724.72
2023-02-02T10:49:28.890Z,97719.41
2023-02-02T10:52:16.233Z,97734.56
2023-02-02T10:54:56.565Z,97723.75
2023-02-02T10:57:39.698Z,97733.06
2023-02-02T11:00:45.458Z,97733.06
2023-02-02T11:03:14.326Z,97726.66
2023-02-02T11:06:00.026Z,97751.59
2023-02-02T11:08:38.823Z,97740.84
2023-02-02T11:11:34.182Z,97747.84
2023-02-02T11:14:15.375Z,97744.38
2023-02-02T11:16:44.645Z,97760.13
2023-02-02T11:19:17.456Z,97755.69
2023-02-02T11:21:56.588Z,97759.00
2023-02-02T11:24:49.908Z,97732.50
2023-02-02T11:27:23.846Z,97751.94
2023-02-02T11:29:55.964Z,97749.53
2023-02-02T11:32:37.526Z,97752.56
2023-02-02T11:35:04.046Z,97759.72
2023-02-02T11:37:52.832Z,97763.19
2023-02-02T11:40:36.515Z,97757.91
2023-02-02T11:43:26.069Z,97753.88
2023-02-02T11:46:03.610Z,97759.59
2023-02-02T11:48:36.575Z,97754.69
2023-02-02T11:51:05.000Z,97774.50
2023-02-02T11:53:34.409Z,97771.84
2023-02-02T11:56:05.790Z,97777.13
2023-02-02T11:58:44.529Z,97777.97
2023-02-02T12:01:25.446Z,97769.91
2023-02-02T12:03:56.791Z,97774.25
2023-02-02T12:06:34.318Z,97786.47
2023-02-02T12:09:09.939Z,97780.34
2023-02-02T12:12:21.325Z,97782.19
2023-02-02T12:15:15.890Z,97791.09
2023-02-02T12:17:45.343Z,97800.00
2023-02-02T12:20:23.447Z,97797.34
2023-02-02T12:23:36.414Z,97804.44
2023-02-02T12:26:05.965Z,97804.56
2023-02-02T12:28:51.331Z,97819.63
2023-02-02T12:31:36.800Z,97817.94
2023-02-02T12:34:04.379Z,97825.88
2023-02-02T12:36:45.294Z,97830.31
2023-02-02T12:39:20.927Z,97825.03
2023-02-02T12:42:16.751Z,97838.16
2023-02-02T12:44:53.383Z,97839.25
2023-02-02T12:47:31.245Z,97856.78
2023-02-02T12:50:23.723Z,97859.41
2023-02-02T12:52:57.595Z,97855.13
2023-02-02T12:55:39.188Z,97867.50
2023-02-02T12:58:27.710Z,97878.09
2023-02-02T13:01:04.094Z,97860.41
2023-02-02T13:03:43.029Z,97874.47
2023-02-02T13:06:28.180Z,97873.66
2023-02-02T13:09:09.892Z,97871.97
2023-02-02T13:11:45.909Z,97886.88
2023-02-02T13:14:21.009Z,97879.19
2023-02-02T13:16:52.269Z,97883.38
2023-02-02T13:19:31.162Z,97893.81
2023-02-02T13:22:00.853Z,97904.41
2023-02-02T13:24:31.167Z,97901.75
2023-02-02T13:27:02.065Z,97898.56
2023-02-02T13:30:10.156Z,97909.69
2023-02-02T13:32:40.209Z,97920.19
2023-02-02T13:35:17.886Z,97921.97
2023-02-02T13:37:55.606Z,97915.84
2023-02-02T13:40:32.083Z,97922.94
2023-02-02T13:43:16.111Z,97937.00
2023-02-02T13:46:12.353Z,97941.44
2023-02-02T13:48:56.874Z,97922.88
2023-02-02T13:52:00.730Z,97943.28
2023-02-02T13:54:44.767Z,97953.03
2023-02-02T13:57:24.396Z,97956.63
2023-02-02T14:00:03.435Z,97954.00
2023-02-02T14:02:49.241Z,97969.72
2023-02-02T14:05:41.078Z,97972.38
2023-02-02T14:08:25.348Z,97976.00
2023-02-02T14:10:55.359Z,97980.31
2023-02-02T14:13:47.841Z,97970.22
2023-02-02T14:16:31.172Z,97986.44
2023-02-02T14:19:01.781Z,97987.28
2023-02-02T14:21:34.197Z,97999.41
2023-02-02T14:24:27.113Z,97997.59
2023-02-02T14:27:02.579Z,97983.59
2023-02-02T14:29:32.290Z,98003.75
2023-02-02T14:32:20.294Z,98005.53
2023-02-02T14:34:47.045Z,98005.44
2023-02-02T14:37:22.739Z,98023.00
2023-02-02T14:40:08.613Z,98017.69
2023-02-02T14:43:28.230Z,98028.16
2023-02-02T14:46:23.114Z,97993.72
2023-02-02T14:49:13.354Z,98024.41
2023-02-02T14:51:55.680Z,98002.41
2023-02-02T14:54:35.585Z,98035.13
2023-02-02T14:57:23.783Z,98049.78
2023-02-02T14:59:52.198Z,98051.44
2023-02-02T15:02:29.358Z,98053.97
2023-02-02T15:05:38.946Z,98066.22
2023-02-02T15:08:24.433Z,98070.66
2023-02-02T15:10:54.058Z,98086.44
2023-02-02T15:13:24.159Z,98086.44
2023-02-02T15:16:16.536Z,98057.50
2023-02-02T15:18:55.458Z,98089.91
2023-02-02T15:21:23.765Z,98090.78
2023-02-02T15:23:50.710Z,98109.16
2023-02-02T15:26:24.763Z,98104.13
2023-02-02T15:28:54.414Z,98109.16
2023-02-02T15:31:37.025Z,98118.22
2023-02-02T15:34:15.587Z,98125.88
2023-02-02T15:36:46.663Z,98126.00
2023-02-02T15:39:32.061Z,98139.97
2023-02-02T15:42:21.571Z,98152.47
2023-02-02T15:44:48.173Z,98164.03
2023-02-02T15:47:18.338Z,98164.03
2023-02-02T15:49:46.148Z,98170.28
2023-02-02T15:52:20.312Z,98172.94
2023-02-02T15:54:55.807Z,98181.75
2023-02-02T15:57:36.006Z,98182.69
2023-02-02T16:00:27.994Z,98189.78
2023-02-02T16:03:03.766Z,98189.78
2023-02-02T16:05:36.149Z,98196.91
2023-02-02T16:08:06.766Z,98192.44
2023-02-02T16:10:34.491Z,98203.88
2023-02-02T16:13:01.806Z,98214.47
2023-02-02T16:15:29.831Z,98214.47
2023-02-02T16:18:00.618Z,98217.09
2023-02-02T16:20:30.144Z,98220.59
2023-02-02T16:23:05.941Z,98205.34
2023-02-02T16:25:37.289Z,98223.50
2023-02-02T16:28:04.476Z,98247.91
2023-02-02T16:32:52.274Z,98259.47
2023-02-02T16:35:38.743Z,98267.28
2023-02-02T16:38:33.852Z,98276.16
2023-02-02T16:41:07.617Z,98269.19
2023-02-02T16:43:39.184Z,98280.78
2023-02-02T16:46:12.423Z,98280.78
2023-02-02T16:48:42.849Z,98295.19
2023-02-02T16:51:22.949Z,98293.28
2023-02-02T16:53:58.273Z,98295.09
2023-02-02T16:57:06.330Z,98302.19
2023-02-02T16:59:37.901Z,98318.19
2023-02-02T17:02:21.036Z,98322.63
2023-02-02T17:04:50.993Z,98337.69
2023-02-02T17:07:17.815Z,98328.78
2023-02-02T17:09:50.040Z,98342.16
2023-02-02T17:12:33.344Z,98341.28
2023-02-02T17:15:22.631Z,98347.78
2023-02-02T17:17:49.534Z,98357.28
2023-02-02T17:20:17.366Z,98354.78
2023-02-02T17:22:47.360Z,98361.03
2023-02-02T17:25:20.004Z,98354.84
2023-02-02T17:27:47.017Z,98370.75
2023-02-02T17:30:18.381Z,98384.97
2023-02-02T17:32:45.177Z,98382.44
2023-02-02T17:35:39.845Z,98386.03
2023-02-02T17:38:10.331Z,98391.44
2023-02-02T17:40:37.173Z,98405.63
2023-02-02T17:43:04.036Z,98405.78
2023-02-02T17:45:34.378Z,98407.66
2023-02-02T17:48:01.778Z,98412.94
2023-02-02T17:50:34.243Z,98421.88
2023-02-02T17:53:00.844Z,98431.59
2023-02-02T17:55:54.486Z,98438.81
2023-02-02T17:58:21.117Z,98439.78
2023-02-02T18:00:53.427Z,98445.91
2023-02-02T18:03:24.933Z,98443.38
2023-02-02T18:05:52.230Z,98450.47
2023-02-02T18:08:18.921Z,98451.44
2023-02-02T18:10:45.725Z,98463.81
2023-02-02T18:13:16.560Z,98463.13
2023-02-02T18:15:44.115Z,98471.06
2023-02-02T18:18:12.447Z,98450.69
2023-02-02T18:20:46.926Z,98471.16
2023-02-02T18:23:14.725Z,98470.31
2023-02-02T18:25:41.737Z,98473.09
2023-02-02T18:28:15.183Z,98471.41
2023-02-02T18:30:43.138Z,98481.97
2023-02-02T18:33:11.367Z,98478.72
2023-02-02T18:35:45.638Z,98490.00
2023-02-02T18:38:35.267Z,98489.19
2023-02-02T18:41:03.626Z,98490.13
2023-02-02T18:43:30.605Z,98494.72
2023-02-02T18:45:59.453Z,98500.72
2023-02-02T18:48:26.062Z,98506.25
2023-02-02T18:50:52.645Z,98514.28
2023-02-02T18:53:19.780Z,98513.44
2023-02-02T18:55:46.389Z,98523.28
2023-02-02T18:58:14.574Z,98533.03
2023-02-02T19:00:41.845Z,98535.81
2023-02-02T19:03:13.282Z,98529.66
2023-02-02T19:05:58.701Z,98541.09
2023-02-02T19:08:25.400Z,98545.53
2023-02-02T19:11:01.888Z,98550.00
2023-02-02T19:13:29.390Z,98564.91
2023-02-02T19:16:00.742Z,98565.88
2023-02-02T19:18:27.486Z,98577.28
2023-02-02T19:20:54.185Z,98581.72
2023-02-02T19:23:23.544Z,98592.31
2023-02-02T19:25:53.877Z,98592.31
2023-02-02T19:28:28.331Z,98602.03
2023-02-02T19:31:13.276Z,98598.78
2023-02-02T19:33:43.303Z,98605.66
2023-02-02T19:36:18.982Z,98603.84
2023-02-02T19:38:46.695Z,98598.69
2023-02-02T19:41:21.465Z,98608.41
2023-02-02T19:43:55.259Z,98606.69
2023-02-02T19:46:25.704Z,98608.53
2023-02-02T19:48:58.926Z,98615.63
2023-02-02T19:51:42.412Z,98626.28
2023-02-02T19:54:18.542Z,98612.56
2023-02-02T19:56:45.266Z,98625.47
2023-02-02T19:59:19.980Z,98615.66
2023-02-02T20:01:50.499Z,98640.72
2023-02-02T20:04:19.363Z,98641.44
2023-02-02T20:06:58.626Z,98653.81
2023-02-02T20:09:33.430Z,98654.75
2023-02-02T20:12:00.587Z,98662.69
2023-02-02T20:14:33.473Z,98652.91
2023-02-02T20:17:05.088Z,98677.84
2023-02-02T20:19:40.057Z,98681.22
2023-02-02T20:22:24.094Z,98672.56
2023-02-02T20:24:50.965Z,98639.41
2023-02-02T20:27:22.428Z,98681.44
2023-02-02T20:29:51.209Z,98688.56
2023-02-02T20:32:30.244Z,98696.56
2023-02-02T20:34:58.655Z,98690.03
2023-02-02T20:37:31.644Z,98712.44
2023-02-02T20:40:01.650Z,98716.91
2023-02-02T20:42:31.737Z,98719.66
2023-02-02T20:44:59.450Z,98726.22
2023-02-02T20:47:26.107Z,98739.22
2023-02-02T20:49:57.301Z,98740.19
2023-02-02T20:52:24.135Z,98740.19
2023-02-02T20:54:52.028Z,98730.66
2023-02-02T20:57:18.948Z,98742.91
2023-02-02T20:59:45.511Z,98749.19
2023-02-02T21:02:19.385Z,98758.06
2023-02-02T21:04:48.006Z,98751.72
2023-02-02T21:07:19.585Z,98769.47
2023-02-02T21:09:48.208Z,98763.34
2023-02-02T21:12:15.720Z,98769.47
2023-02-02T21:14:42.478Z,98769.34
2023-02-02T21:17:16.114Z,98765.88
2023-02-02T21:19:43.579Z,98766.00
2023-02-02T21:22:10.665Z,98774.66
2023-02-02T21:24:37.818Z,98775.41
2023-02-02T21:27:05.124Z,98776.25
2023-02-02T21:29:32.965Z,98778.91
2023-02-02T21:32:02.225Z,98785.84
2023-02-02T21:34:29.929Z,98787.66
2023-02-02T21:36:58.017Z,98790.19
2023-02-02T21:39:35.302Z,98791.16
2023-02-02T21:42:07.712Z,98792.13
2023-02-02T21:44:44.552Z,98808.72
2023-02-02T21:47:20.011Z,98809.66
2023-02-02T21:49:46.651Z,98798.44
2023-02-02T21:52:18.462Z,98792.75
2023-02-02T21:54:46.736Z,98809.66
2023-02-02T21:59:36.719Z,98807.00
2023-02-02T22:02:42.575Z,98808.81
2023-02-02T22:05:35.492Z,98811.47
2023-02-02T22:08:25.569Z,98814.22
2023-02-02T22:10:52.133Z,98838.03
2023-02-02T22:13:21.552Z,98844.38
2023-02-02T22:15:51.343Z,98842.44
2023-02-02T22:18:19.452Z,98846.03
2023-02-02T22:20:48.032Z,98851.34
2023-02-02T22:23:16.856Z,98852.41
2023-02-02T22:28:02.296Z,98855.91
2023-02-02T22:30:31.910Z,98853.25
2023-02-02T22:32:58.575Z,98852.50
2023-02-02T22:35:25.403Z,98856.09
2023-02-02T22:37:52.039Z,98863.31
2023-02-02T22:40:22.383Z,98843.84
2023-02-02T22:42:54.336Z,98868.59
2023-02-02T22:45:21.220Z,98878.31
2023-02-02T22:47:48.676Z,98872.59
2023-02-02T22:50:17.339Z,98886.34
2023-02-02T22:52:44.283Z,98882.84
2023-02-02T22:55:11.905Z,98887.31
2023-02-02T22:57:38.715Z,98895.22
2023-02-02T23:00:10.673Z,98895.22
2023-02-02T23:02:38.026Z,98890.78
2023-02-02T23:05:05.579Z,98888.13
2023-02-02T23:07:32.523Z,98890.06
2023-02-02T23:09:59.349Z,98890.78
2023-02-02T23:12:26.041Z,98897.75
2023-02-02T23:14:52.609Z,98894.28
2023-02-02T23:17:19.303Z,98891.53
2023-02-02T23:19:45.958Z,98901.16
2023-02-02T23:22:12.575Z,98889.94
2023-02-02T23:24:39.090Z,98907.28
2023-02-02T23:27:05.934Z,98906.34
2023-02-02T23:29:32.510Z,98897.34
2023-02-02T23:31:59.226Z,98916.91
2023-02-02T23:34:25.779Z,98916.81
2023-02-02T23:36:53.577Z,98923.78
2023-02-02T23:39:20.508Z,98921.38
2023-02-02T23:41:47.609Z,98925.59
2023-02-02T23:44:14.170Z,98912.16
2023-02-02T23:46:41.704Z,98928.13
2023-02-02T23:49:08.688Z,98936.94
2023-02-02T23:51:35.337Z,98950.16
2023-02-02T23:54:02.098Z,98947.50
2023-02-02T23:56:29.068Z,98932.13
2023-02-02T23:58:55.878Z,98947.41
